Terminal Aerodrome Forecast
Issued by NWS

Home | Current Version | Previous Version | Text Only | Print | Product List | Glossary On
Versions: 1 2 3 4 5 6 7 8 9 10 11 12 13 14 15
000
FTUS41 KBTV 312340
TAFMPV
TAF
KMPV 312340Z 0100/0124 31005KT P6SM SCT090
     FM010600 00000KT 5SM BR FEW200
     FM010800 00000KT 1/2SM FG FEW150
     FM011200 00000KT 3SM BR FEW150
     FM011400 VRB03KT P6SM SKC=

USA.gov is the U.S. government's official web portal to all federal, state and local government web resources and services.